createdAt,value
2023-04-15T00:01:24.882Z,8.10
2023-04-15T00:03:53.260Z,8.30
2023-04-15T00:06:23.516Z,8.30
2023-04-15T00:08:51.050Z,8.30
2023-04-15T00:11:18.623Z,8.30
2023-04-15T00:13:46.149Z,8.30
2023-04-15T00:16:13.716Z,8.20
2023-04-15T00:18:41.259Z,8.20
2023-04-15T00:21:08.800Z,8.20
2023-04-15T00:23:36.333Z,8.40
2023-04-15T00:26:03.923Z,8.40
2023-04-15T00:28:31.456Z,8.40
2023-04-15T00:30:59.054Z,8.40
2023-04-15T00:33:26.648Z,8.50
2023-04-15T00:35:54.181Z,8.50
2023-04-15T00:38:22.475Z,8.40
2023-04-15T00:40:50.192Z,8.40
2023-04-15T00:43:17.691Z,8.30
2023-04-15T00:45:46.041Z,8.20
2023-04-15T00:48:13.658Z,8.20
2023-04-15T00:50:41.171Z,8.20
2023-04-15T00:53:09.042Z,8.20
2023-04-15T00:55:36.645Z,8.10
2023-04-15T00:58:04.180Z,8.10
2023-04-15T01:00:32.459Z,8.10
2023-04-15T01:03:00.338Z,8.10
2023-04-15T01:05:27.609Z,8.10
2023-04-15T01:07:55.145Z,8.10
2023-04-15T01:10:22.726Z,8.10
2023-04-15T01:12:50.283Z,8.10
2023-04-15T01:15:17.801Z,8.00
2023-04-15T01:17:46.218Z,8.30
2023-04-15T01:20:13.675Z,8.30
2023-04-15T01:22:41.202Z,8.30
2023-04-15T01:25:14.181Z,8.20
2023-04-15T01:27:45.216Z,8.20
2023-04-15T01:30:13.499Z,8.20
2023-04-15T01:32:42.052Z,8.20
2023-04-15T01:35:09.615Z,8.20
2023-04-15T01:37:37.172Z,8.20
2023-04-15T01:40:04.801Z,8.20
2023-04-15T01:42:32.335Z,8.40
2023-04-15T01:44:59.860Z,8.40
2023-04-15T01:47:27.480Z,8.40
2023-04-15T01:49:55.008Z,8.40
2023-04-15T01:52:23.296Z,8.30
2023-04-15T01:54:50.913Z,8.30
2023-04-15T01:57:18.431Z,8.30
2023-04-15T01:59:45.948Z,8.20
2023-04-15T02:02:14.309Z,8.20
2023-04-15T02:04:41.788Z,8.20
2023-04-15T02:07:10.074Z,8.20
2023-04-15T02:09:38.403Z,8.20
2023-04-15T02:12:05.933Z,8.20
2023-04-15T02:14:33.454Z,8.20
2023-04-15T02:17:04.454Z,8.10
2023-04-15T02:19:31.987Z,8.10
2023-04-15T02:21:59.523Z,8.20
2023-04-15T02:24:27.111Z,8.20
2023-04-15T02:26:54.643Z,8.10
2023-04-15T02:29:22.927Z,8.40
2023-04-15T02:31:50.500Z,8.40
2023-04-15T02:34:18.766Z,8.30
2023-04-15T02:36:46.288Z,8.30
2023-04-15T02:39:13.883Z,8.30
2023-04-15T02:41:41.434Z,8.30
2023-04-15T02:44:11.316Z,8.30
2023-04-15T02:46:37.246Z,8.30
2023-04-15T02:49:04.800Z,8.30
2023-04-15T02:51:32.332Z,8.30
2023-04-15T02:53:59.864Z,8.20
2023-04-15T02:56:27.412Z,8.20
2023-04-15T02:58:54.935Z,8.20
2023-04-15T03:01:22.536Z,8.20
2023-04-15T03:03:50.920Z,8.20
2023-04-15T03:06:18.345Z,8.20
2023-04-15T03:08:46.666Z,8.20
2023-04-15T03:11:14.204Z,8.20
2023-04-15T03:13:41.755Z,8.20
2023-04-15T03:16:10.093Z,8.20
2023-04-15T03:18:37.581Z,8.20
2023-04-15T03:21:05.117Z,8.20
2023-04-15T03:23:33.479Z,8.20
2023-04-15T03:26:04.210Z,8.20
2023-04-15T03:28:31.730Z,8.20
2023-04-15T03:30:59.338Z,8.20
2023-04-15T03:33:26.810Z,8.20
2023-04-15T03:35:55.104Z,8.10
2023-04-15T03:38:23.442Z,8.10
2023-04-15T03:40:50.972Z,8.10
2023-04-15T03:43:18.485Z,8.10
2023-04-15T03:45:46.891Z,8.10
2023-04-15T03:48:17.290Z,8.10
2023-04-15T03:50:41.938Z,8.10
2023-04-15T03:53:09.532Z,8.10
2023-04-15T03:55:37.070Z,8.10
2023-04-15T03:58:04.602Z,8.10
2023-04-15T04:00:32.165Z,8.10
2023-04-15T04:02:59.898Z,8.10
2023-04-15T04:05:27.976Z,8.10
2023-04-15T04:07:55.553Z,8.10
2023-04-15T04:10:23.096Z,8.00
2023-04-15T04:12:50.637Z,8.00
2023-04-15T04:15:18.967Z,7.90
2023-04-15T04:17:46.534Z,7.90
2023-04-15T04:20:14.032Z,7.90
2023-04-15T04:22:42.392Z,7.80
2023-04-15T04:25:10.031Z,7.80
2023-04-15T04:27:37.565Z,7.80
2023-04-15T04:30:05.248Z,7.80
2023-04-15T04:32:32.841Z,7.70
2023-04-15T04:35:00.331Z,7.70
2023-04-15T04:37:27.929Z,7.80
2023-04-15T04:39:55.464Z,7.80
2023-04-15T04:42:23.004Z,7.80
2023-04-15T04:44:50.606Z,7.80
2023-04-15T04:47:18.135Z,7.80
2023-04-15T04:49:45.671Z,8.00
2023-04-15T04:52:13.856Z,8.30
2023-04-15T04:54:41.389Z,8.30
2023-04-15T04:57:09.692Z,8.40
2023-04-15T04:59:37.469Z,8.30
2023-04-15T05:02:05.096Z,8.30
2023-04-15T05:04:32.552Z,8.20
2023-04-15T05:07:00.919Z,8.10
2023-04-15T05:09:28.453Z,8.10
2023-04-15T05:11:55.978Z,8.10
2023-04-15T05:14:23.557Z,8.30
2023-04-15T05:16:51.087Z,8.50
2023-04-15T05:19:18.618Z,8.40
2023-04-15T05:21:46.985Z,8.20
2023-04-15T05:24:14.500Z,8.20
2023-04-15T05:26:42.835Z,8.10
2023-04-15T05:29:09.615Z,8.30
2023-04-15T05:31:37.240Z,8.30
2023-04-15T05:34:04.726Z,8.20
2023-04-15T05:36:32.289Z,8.40
2023-04-15T05:39:00.084Z,8.40
2023-04-15T05:41:27.359Z,8.40
2023-04-15T05:43:55.701Z,8.30
2023-04-15T05:46:23.251Z,8.30
2023-04-15T05:48:50.760Z,8.30
2023-04-15T05:51:19.083Z,8.30
2023-04-15T05:53:46.628Z,8.30
2023-04-15T05:56:14.165Z,8.30
2023-04-15T05:58:42.516Z,8.40
2023-04-15T06:01:10.050Z,8.40
2023-04-15T06:03:37.847Z,8.40
2023-04-15T06:06:05.149Z,8.60
2023-04-15T06:08:32.672Z,8.70
2023-04-15T06:11:00.976Z,8.60
2023-04-15T06:13:28.551Z,8.60
2023-04-15T06:15:56.127Z,8.70
2023-04-15T06:18:24.348Z,8.70
2023-04-15T06:20:52.711Z,8.80
2023-04-15T06:23:20.255Z,8.80
2023-04-15T06:25:47.783Z,8.80
2023-04-15T06:28:17.263Z,8.90
2023-04-15T06:30:42.892Z,9.10
2023-04-15T06:33:10.433Z,9.40
2023-04-15T06:35:38.032Z,9.40
2023-04-15T06:38:05.548Z,9.40
2023-04-15T06:40:33.850Z,9.30
2023-04-15T06:43:01.413Z,9.40
2023-04-15T06:45:28.979Z,9.40
2023-04-15T06:47:56.516Z,9.40
2023-04-15T06:50:24.810Z,9.40
2023-04-15T06:52:52.353Z,9.40
2023-04-15T06:55:19.888Z,9.40
2023-04-15T06:57:48.212Z,9.50
2023-04-15T07:00:15.733Z,9.50
2023-04-15T07:02:43.483Z,9.70
2023-04-15T07:05:11.898Z,9.90
2023-04-15T07:07:40.154Z,9.90
2023-04-15T07:10:07.915Z,9.90
2023-04-15T07:12:36.229Z,10.00
2023-04-15T07:15:03.780Z,10.00
2023-04-15T07:17:31.376Z,10.10
2023-04-15T07:19:59.690Z,10.40
2023-04-15T07:22:27.225Z,10.50
2023-04-15T07:24:55.574Z,10.50
2023-04-15T07:27:23.125Z,10.50
2023-04-15T07:29:50.657Z,10.60
2023-04-15T07:32:18.246Z,10.60
2023-04-15T07:34:45.797Z,10.70
2023-04-15T07:37:13.316Z,10.70
2023-04-15T07:39:40.853Z,10.80
2023-04-15T07:42:09.203Z,11.00
2023-04-15T07:44:36.736Z,10.90
2023-04-15T07:47:04.309Z,11.00
2023-04-15T07:49:31.844Z,11.20
2023-04-15T07:51:59.384Z,11.50
2023-04-15T07:54:27.666Z,11.70
2023-04-15T07:56:55.253Z,11.60
2023-04-15T07:59:22.808Z,11.70
2023-04-15T08:01:51.100Z,11.80
2023-04-15T08:04:19.087Z,11.70
2023-04-15T08:06:46.485Z,11.80
2023-04-15T08:09:14.027Z,11.90
2023-04-15T08:11:42.374Z,12.00
2023-04-15T08:14:09.916Z,12.00
2023-04-15T08:16:37.518Z,12.00
2023-04-15T08:19:05.307Z,12.10
2023-04-15T08:21:33.440Z,12.10
2023-04-15T08:24:00.977Z,12.20
2023-04-15T08:26:29.163Z,12.20
2023-04-15T08:28:56.716Z,12.50
2023-04-15T08:31:24.280Z,12.60
2023-04-15T08:33:51.820Z,12.60
2023-04-15T08:36:19.387Z,12.70
2023-04-15T08:38:46.923Z,12.80
2023-04-15T08:41:23.741Z,12.90
2023-04-15T08:43:54.066Z,13.00
2023-04-15T08:46:21.607Z,13.10
2023-04-15T08:48:49.238Z,13.20
2023-04-15T08:51:16.774Z,13.50
2023-04-15T08:53:45.161Z,13.60
2023-04-15T08:56:12.651Z,13.60
2023-04-15T08:58:40.176Z,13.70
2023-04-15T09:01:07.746Z,13.80
2023-04-15T09:03:36.142Z,14.00
2023-04-15T09:06:03.637Z,14.00
2023-04-15T09:08:31.155Z,14.10
2023-04-15T09:10:58.735Z,14.20
2023-04-15T09:13:26.270Z,14.30
2023-04-15T09:15:53.793Z,14.30
2023-04-15T09:18:28.144Z,14.40
2023-04-15T09:20:55.663Z,14.40
2023-04-15T09:23:23.950Z,14.60
2023-04-15T09:25:52.303Z,14.70
2023-04-15T09:28:19.826Z,14.60
2023-04-15T09:30:48.152Z,14.70
2023-04-15T09:33:14.943Z,14.70
2023-04-15T09:35:42.469Z,14.70
2023-04-15T09:38:10.192Z,14.70
2023-04-15T09:40:38.367Z,14.70
2023-04-15T09:43:05.890Z,14.70
2023-04-15T09:45:33.423Z,14.80
2023-04-15T09:48:16.621Z,15.00
2023-04-15T09:50:44.186Z,15.00
2023-04-15T09:53:14.276Z,15.10
2023-04-15T09:55:42.558Z,15.20
2023-04-15T09:58:10.087Z,15.40
2023-04-15T10:00:37.625Z,15.50
2023-04-15T10:03:05.359Z,15.60
2023-04-15T10:05:32.735Z,15.70
2023-04-15T10:08:01.026Z,15.90
2023-04-15T10:10:28.593Z,15.90
2023-04-15T10:12:56.120Z,16.00
2023-04-15T10:15:24.426Z,16.20
2023-04-15T10:17:52.037Z,16.20
2023-04-15T10:20:19.924Z,16.30
2023-04-15T10:22:50.795Z,16.30
2023-04-15T10:25:20.575Z,16.40
2023-04-15T10:27:52.615Z,16.40
2023-04-15T10:30:20.851Z,16.50
2023-04-15T10:33:08.423Z,16.60
2023-04-15T10:35:35.138Z,16.50
2023-04-15T10:38:04.565Z,16.50
2023-04-15T10:40:32.540Z,16.40
2023-04-15T10:43:00.352Z,16.40
2023-04-15T10:45:46.559Z,16.50
2023-04-15T10:48:18.537Z,16.70
2023-04-15T10:50:44.844Z,16.80
2023-04-15T10:53:14.369Z,16.80
2023-04-15T10:55:44.886Z,16.90
2023-04-15T10:58:13.592Z,17.10
2023-04-15T11:00:43.497Z,17.00
2023-04-15T11:03:12.336Z,16.80
2023-04-15T11:05:42.818Z,16.80
2023-04-15T11:08:11.500Z,16.50
2023-04-15T11:10:42.224Z,16.50
2023-04-15T11:13:18.084Z,16.50
2023-04-15T11:15:46.901Z,16.50
2023-04-15T11:18:17.601Z,16.50
2023-04-15T11:20:50.595Z,16.60
2023-04-15T11:23:23.281Z,16.70
2023-04-15T11:25:54.791Z,16.80
2023-04-15T11:28:27.406Z,16.90
2023-04-15T11:31:01.717Z,17.00
2023-04-15T11:33:29.505Z,17.00
2023-04-15T11:35:57.252Z,17.10
2023-04-15T11:38:28.952Z,17.30
2023-04-15T11:40:58.234Z,17.30
2023-04-15T11:43:26.716Z,17.30
2023-04-15T11:46:03.037Z,17.30
2023-04-15T11:48:35.832Z,17.20
2023-04-15T11:51:06.094Z,17.30
2023-04-15T11:53:45.981Z,17.50
2023-04-15T11:56:24.548Z,17.40
2023-04-15T11:58:54.224Z,17.30
2023-04-15T12:01:21.072Z,17.30
2023-04-15T12:03:56.959Z,17.30
2023-04-15T12:06:27.573Z,17.30
2023-04-15T12:09:03.808Z,17.30
2023-04-15T12:11:31.913Z,17.30
2023-04-15T12:13:59.863Z,17.20
2023-04-15T12:16:30.588Z,17.20
2023-04-15T12:18:59.478Z,17.40
2023-04-15T12:21:30.209Z,17.40
2023-04-15T12:24:02.139Z,17.40
2023-04-15T12:26:42.148Z,17.40
2023-04-15T12:29:10.999Z,17.40
2023-04-15T12:31:38.549Z,17.30
2023-04-15T12:34:09.299Z,17.30
2023-04-15T12:36:39.317Z,17.30
2023-04-15T12:39:09.244Z,17.30
2023-04-15T12:41:37.826Z,17.30
2023-04-15T12:44:08.972Z,17.40
2023-04-15T12:46:42.086Z,17.40
2023-04-15T12:49:12.071Z,17.50
2023-04-15T12:51:42.605Z,17.40
2023-04-15T12:54:11.516Z,17.40
2023-04-15T12:56:40.738Z,17.40
2023-04-15T12:59:08.502Z,17.40
2023-04-15T13:01:36.275Z,17.30
2023-04-15T13:04:05.275Z,17.40
2023-04-15T13:06:36.304Z,17.40
2023-04-15T13:09:12.558Z,17.60
2023-04-15T13:11:43.102Z,17.80
2023-04-15T13:14:12.706Z,17.80
2023-04-15T13:16:44.866Z,17.70
2023-04-15T13:19:16.310Z,17.70
2023-04-15T13:21:44.200Z,17.90
2023-04-15T13:24:12.130Z,17.80
2023-04-15T13:26:43.968Z,17.80
2023-04-15T13:29:15.594Z,18.10
2023-04-15T13:31:43.547Z,18.00
2023-04-15T13:34:11.262Z,18.20
2023-04-15T13:36:44.333Z,18.40
2023-04-15T13:39:17.404Z,18.30
2023-04-15T13:41:46.428Z,18.20
2023-04-15T13:44:18.079Z,18.20
2023-04-15T13:46:45.624Z,18.20
2023-04-15T13:49:15.842Z,18.10
2023-04-15T13:51:44.423Z,18.00
2023-04-15T13:54:18.780Z,17.90
2023-04-15T13:56:50.436Z,17.90
2023-04-15T13:59:28.621Z,17.80
2023-04-15T14:01:55.740Z,17.80
2023-04-15T14:04:32.330Z,17.80
2023-04-15T14:09:35.466Z,17.60
2023-04-15T14:12:03.826Z,17.70
2023-04-15T14:14:37.684Z,17.70
2023-04-15T14:17:02.542Z,17.80
2023-04-15T14:19:30.238Z,17.80
2023-04-15T14:21:58.204Z,17.70
2023-04-15T14:24:26.678Z,17.60
2023-04-15T14:26:54.411Z,17.60
2023-04-15T14:29:25.216Z,17.50
2023-04-15T14:32:11.239Z,17.40
2023-04-15T14:34:28.419Z,17.30
2023-04-15T14:37:00.394Z,17.30
2023-04-15T14:39:30.318Z,17.00
2023-04-15T14:42:01.230Z,17.00
2023-04-15T14:44:38.332Z,16.90
2023-04-15T14:47:11.927Z,16.80
2023-04-15T14:49:47.682Z,16.80
2023-04-15T14:52:15.358Z,16.80
2023-04-15T14:54:45.156Z,17.10
2023-04-15T14:57:16.285Z,17.20
2023-04-15T14:59:44.179Z,17.20
2023-04-15T15:02:12.900Z,17.20
2023-04-15T15:04:38.831Z,17.20
2023-04-15T15:07:09.306Z,17.30
2023-04-15T15:09:40.666Z,17.40
2023-04-15T15:12:11.085Z,17.50
2023-04-15T15:14:40.071Z,17.40
2023-04-15T15:17:09.077Z,17.40
2023-04-15T15:19:37.251Z,17.40
2023-04-15T15:22:06.445Z,17.30
2023-04-15T15:24:44.249Z,17.20
2023-04-15T15:27:16.010Z,17.20
2023-04-15T15:29:42.851Z,17.10
2023-04-15T15:32:13.715Z,17.00
2023-04-15T15:34:48.717Z,17.00
2023-04-15T15:37:19.778Z,16.90
2023-04-15T15:39:47.080Z,17.00
2023-04-15T15:42:16.237Z,17.00
2023-04-15T15:44:47.691Z,17.00
2023-04-15T15:47:18.463Z,16.90
2023-04-15T15:49:46.269Z,16.90
2023-04-15T15:52:17.220Z,16.90
2023-04-15T15:54:44.969Z,17.10
2023-04-15T15:57:12.905Z,17.20
2023-04-15T15:59:47.359Z,17.40
2023-04-15T16:02:15.704Z,17.40
2023-04-15T16:04:43.482Z,17.50
2023-04-15T16:07:11.360Z,17.60
2023-04-15T16:09:39.229Z,17.70
2023-04-15T16:12:09.559Z,17.70
2023-04-15T16:14:37.519Z,17.70
2023-04-15T16:17:09.473Z,17.70
2023-04-15T16:19:39.091Z,17.70
2023-04-15T16:22:05.629Z,17.70
2023-04-15T16:24:35.205Z,17.60
2023-04-15T16:27:03.748Z,17.60
2023-04-15T16:29:32.016Z,17.60
2023-04-15T16:31:59.825Z,17.50
2023-04-15T16:34:28.765Z,17.50
2023-04-15T16:36:56.737Z,17.40
2023-04-15T16:39:24.508Z,17.40
2023-04-15T16:41:58.274Z,17.40
2023-04-15T16:44:27.216Z,17.40
2023-04-15T16:46:56.092Z,17.50
2023-04-15T16:49:28.186Z,17.60
2023-04-15T16:51:57.158Z,17.60
2023-04-15T16:54:31.675Z,17.70
2023-04-15T16:56:59.554Z,17.90
2023-04-15T16:59:31.108Z,17.90
2023-04-15T17:02:06.159Z,17.80
2023-04-15T17:04:34.091Z,17.50
2023-04-15T17:07:02.792Z,17.20
2023-04-15T17:09:34.941Z,16.90
2023-04-15T17:12:02.788Z,16.60
2023-04-15T17:14:33.018Z,16.30
2023-04-15T17:17:00.918Z,16.10
2023-04-15T17:19:30.594Z,15.80
2023-04-15T17:22:04.948Z,15.50
2023-04-15T17:24:35.831Z,15.40
2023-04-15T17:27:06.205Z,15.20
2023-04-15T17:29:34.647Z,15.00
2023-04-15T17:32:05.372Z,14.90
2023-04-15T17:34:50.545Z,14.90
2023-04-15T17:37:02.847Z,14.80
2023-04-15T17:39:30.551Z,14.70
2023-04-15T17:42:09.417Z,14.60
2023-04-15T17:44:38.065Z,14.60
2023-04-15T17:47:08.780Z,14.60
2023-04-15T17:49:40.993Z,14.40
2023-04-15T17:52:09.879Z,14.30
2023-04-15T17:54:40.351Z,14.10
2023-04-15T17:57:07.457Z,14.10
2023-04-15T17:59:38.799Z,14.00
2023-04-15T18:02:12.448Z,13.80
2023-04-15T18:04:40.350Z,13.80
2023-04-15T18:07:09.581Z,13.80
2023-04-15T18:09:37.338Z,13.70
2023-04-15T18:12:09.600Z,13.80
2023-04-15T18:14:43.308Z,13.80
2023-04-15T18:17:14.353Z,13.70
2023-04-15T18:19:42.141Z,13.60
2023-04-15T18:22:11.118Z,13.50
2023-04-15T18:24:40.941Z,13.40
2023-04-15T18:27:09.112Z,13.40
2023-04-15T18:29:40.342Z,13.40
2023-04-15T18:32:06.062Z,13.30
2023-04-15T18:34:33.760Z,13.20
2023-04-15T18:37:04.389Z,13.20
2023-04-15T18:39:38.624Z,13.10
2023-04-15T18:42:04.512Z,13.10
2023-04-15T18:44:35.459Z,13.10
2023-04-15T18:47:07.826Z,13.10
2023-04-15T18:49:35.676Z,13.00
2023-04-15T18:52:04.397Z,13.00
2023-04-15T18:54:42.124Z,13.00
2023-04-15T18:57:09.823Z,13.00
2023-04-15T18:59:41.512Z,13.00
2023-04-15T19:02:09.513Z,13.00
2023-04-15T19:04:39.103Z,12.90
2023-04-15T19:07:19.724Z,12.90
2023-04-15T19:09:47.179Z,12.90
2023-04-15T19:12:18.493Z,12.80
2023-04-15T19:14:52.543Z,12.80
2023-04-15T19:17:21.660Z,12.80
2023-04-15T19:19:54.525Z,12.90
2023-04-15T19:22:25.270Z,12.90
2023-04-15T19:24:53.128Z,12.80
2023-04-15T19:27:23.449Z,12.70
2023-04-15T19:29:54.273Z,12.70
2023-04-15T19:32:30.761Z,12.60
2023-04-15T19:35:00.889Z,12.60
2023-04-15T19:37:32.054Z,12.60
2023-04-15T19:39:59.890Z,12.50
2023-04-15T19:42:30.002Z,12.50
2023-04-15T19:45:03.847Z,12.40
2023-04-15T19:47:31.722Z,12.40
2023-04-15T19:50:01.815Z,12.40
2023-04-15T19:52:31.312Z,12.30
2023-04-15T19:55:08.402Z,12.30
2023-04-15T19:57:38.641Z,12.30
2023-04-15T20:00:06.370Z,12.30
2023-04-15T20:02:33.975Z,12.30
2023-04-15T20:05:01.761Z,12.20
2023-04-15T20:07:29.302Z,12.20
2023-04-15T20:09:57.626Z,12.20
2023-04-15T20:12:51.403Z,12.20
2023-04-15T20:14:52.744Z,12.20
2023-04-15T20:17:20.312Z,12.20
2023-04-15T20:19:47.856Z,12.10
2023-04-15T20:22:15.391Z,12.10
2023-04-15T20:24:42.916Z,12.00
2023-04-15T20:27:11.539Z,11.90
2023-04-15T20:29:39.086Z,11.90
2023-04-15T20:32:06.617Z,12.10
2023-04-15T20:34:34.983Z,12.00
2023-04-15T20:37:02.523Z,11.90
2023-04-15T20:39:30.068Z,11.90
2023-04-15T20:41:57.629Z,12.10
2023-04-15T20:44:25.161Z,12.20
2023-04-15T20:46:52.723Z,12.20
2023-04-15T20:49:21.073Z,12.00
2023-04-15T20:51:48.577Z,11.90
2023-04-15T20:54:16.101Z,11.90
2023-04-15T20:56:43.670Z,12.00
2023-04-15T20:59:11.223Z,12.00
2023-04-15T21:01:39.579Z,11.80
2023-04-15T21:04:07.265Z,11.80
2023-04-15T21:06:34.743Z,11.70
2023-04-15T21:09:02.283Z,11.70
2023-04-15T21:11:53.368Z,11.50
2023-04-15T21:13:58.143Z,11.50
2023-04-15T21:16:25.693Z,11.50
2023-04-15T21:18:53.274Z,11.60
2023-04-15T21:21:20.976Z,11.60
2023-04-15T21:23:48.490Z,11.60
2023-04-15T21:26:16.075Z,11.50
2023-04-15T21:28:43.621Z,11.50
2023-04-15T21:31:11.159Z,11.40
2023-04-15T21:33:38.720Z,11.40
2023-04-15T21:36:06.263Z,11.40
2023-04-15T21:38:34.045Z,11.30
2023-04-15T21:41:02.907Z,11.30
2023-04-15T21:43:30.428Z,11.20
2023-04-15T21:46:21.841Z,11.20
2023-04-15T21:48:25.544Z,11.20
2023-04-15T21:50:53.064Z,11.40
2023-04-15T21:53:20.595Z,11.40
2023-04-15T21:55:49.102Z,11.20
2023-04-15T21:58:16.698Z,11.20
2023-04-15T22:00:44.233Z,11.20
2023-04-15T22:03:11.974Z,11.10
2023-04-15T22:05:39.361Z,11.00
2023-04-15T22:08:06.921Z,10.90
2023-04-15T22:10:34.472Z,10.90
2023-04-15T22:13:02.150Z,10.80
2023-04-15T22:15:29.545Z,11.00
2023-04-15T22:17:58.027Z,10.90
2023-04-15T22:20:25.429Z,10.90
2023-04-15T22:22:54.271Z,10.80
2023-04-15T22:25:20.565Z,11.00
2023-04-15T22:27:48.098Z,11.00
2023-04-15T22:30:15.655Z,10.90
2023-04-15T22:32:43.295Z,11.10
2023-04-15T22:35:10.785Z,11.00
2023-04-15T22:37:38.360Z,10.90
2023-04-15T22:40:06.030Z,11.10
2023-04-15T22:42:33.572Z,11.30
2023-04-15T22:45:01.100Z,11.50
2023-04-15T22:47:29.085Z,11.30
2023-04-15T22:49:56.584Z,11.20
2023-04-15T22:52:30.617Z,10.90
2023-04-15T22:54:52.475Z,10.90
2023-04-15T22:57:19.988Z,10.80
2023-04-15T22:59:48.284Z,10.70
2023-04-15T23:02:16.220Z,10.60
2023-04-15T23:04:43.741Z,10.60
2023-04-15T23:07:11.176Z,10.50
2023-04-15T23:09:38.762Z,10.50
2023-04-15T23:12:06.282Z,10.50
2023-04-15T23:14:33.827Z,10.40
2023-04-15T23:17:02.187Z,10.30
2023-04-15T23:19:29.731Z,10.30
2023-04-15T23:21:57.244Z,10.30
2023-04-15T23:24:24.823Z,10.30
2023-04-15T23:26:52.363Z,10.20
2023-04-15T23:29:19.902Z,10.20
2023-04-15T23:31:48.290Z,10.10
2023-04-15T23:34:15.772Z,10.10
2023-04-15T23:36:43.588Z,10.10
2023-04-15T23:39:12.318Z,10.00
2023-04-15T23:41:40.491Z,10.00
2023-04-15T23:44:08.035Z,10.00
2023-04-15T23:46:35.667Z,10.00
2023-04-15T23:49:03.128Z,10.00
2023-04-15T23:51:31.435Z,9.90
2023-04-15T23:53:59.103Z,9.90
2023-04-15T23:56:26.626Z,9.90
2023-04-15T23:58:54.925Z,9.90
